createdAt,value
2022-08-16T00:02:23.586Z,24.60
2022-08-16T00:12:28.054Z,24.40
2022-08-16T00:22:33.263Z,24.40
2022-08-16T00:32:38.344Z,24.40
2022-08-16T00:42:43.809Z,24.40
2022-08-16T00:52:51.098Z,24.40
2022-08-16T01:02:58.403Z,24.30
2022-08-16T01:13:07.497Z,24.20
2022-08-16T01:23:19.217Z,24.10
2022-08-16T01:33:24.851Z,24.10
2022-08-16T01:43:40.002Z,24.10
2022-08-16T01:53:45.298Z,24.20
2022-08-16T02:04:11.285Z,24.30
2022-08-16T02:14:18.562Z,24.20
2022-08-16T02:24:32.091Z,24.20
2022-08-16T02:34:40.921Z,24.00
2022-08-16T02:44:44.987Z,24.00
2022-08-16T02:54:55.286Z,23.90
2022-08-16T03:04:59.498Z,23.80
2022-08-16T03:15:05.141Z,23.70
2022-08-16T03:25:11.763Z,23.70
2022-08-16T03:35:18.197Z,23.70
2022-08-16T03:45:27.235Z,23.90
2022-08-16T03:55:45.745Z,23.70
2022-08-16T04:05:51.450Z,23.90
2022-08-16T04:15:59.637Z,23.90
2022-08-16T04:26:04.591Z,23.80
2022-08-16T04:36:12.076Z,23.80
2022-08-16T04:47:00.613Z,23.80
2022-08-16T04:56:49.253Z,23.70
2022-08-16T05:06:54.025Z,23.70
2022-08-16T05:17:00.046Z,23.60
2022-08-16T05:27:11.510Z,23.60
2022-08-16T05:37:17.318Z,23.70
2022-08-16T05:47:30.335Z,23.90
2022-08-16T05:57:36.013Z,24.00
2022-08-16T06:07:40.090Z,24.30
2022-08-16T06:17:46.325Z,24.70
2022-08-16T06:27:57.280Z,25.00
2022-08-16T06:38:02.944Z,25.50
2022-08-16T06:48:07.026Z,25.80
2022-08-16T06:58:22.148Z,26.30
2022-08-16T07:08:27.550Z,26.50
2022-08-16T07:18:33.139Z,26.60
2022-08-16T07:28:36.901Z,26.40
2022-08-16T07:38:42.252Z,26.50
2022-08-16T07:48:47.554Z,26.50
2022-08-16T07:58:55.592Z,26.70
2022-08-16T08:09:02.447Z,26.70
2022-08-16T08:19:08.830Z,26.90
2022-08-16T08:29:14.208Z,26.90
2022-08-16T08:39:28.284Z,27.10
2022-08-16T08:49:46.437Z,27.30
2022-08-16T08:59:59.082Z,27.60
2022-08-16T09:10:06.751Z,27.90
2022-08-16T09:20:26.235Z,28.20
2022-08-16T09:30:34.679Z,28.60
2022-08-16T09:40:49.348Z,28.60
2022-08-16T09:50:53.356Z,28.80
2022-08-16T10:01:01.397Z,29.50
2022-08-16T10:11:24.619Z,29.50
2022-08-16T10:21:32.153Z,29.70
2022-08-16T10:31:44.361Z,31.10
2022-08-16T10:41:51.349Z,30.00
2022-08-16T10:52:01.221Z,29.00
2022-08-16T11:02:59.421Z,28.80
2022-08-16T11:12:31.178Z,30.50
2022-08-16T11:22:46.994Z,30.20
2022-08-16T11:32:52.403Z,30.00
2022-08-16T11:42:57.899Z,29.50
2022-08-16T11:53:02.404Z,29.00
2022-08-16T12:03:09.307Z,28.70
2022-08-16T12:13:15.185Z,28.70
2022-08-16T12:23:20.580Z,30.70
2022-08-16T12:33:26.358Z,31.80
2022-08-16T12:43:31.751Z,32.20
2022-08-16T12:53:39.960Z,31.50
2022-08-16T13:03:45.432Z,29.60
2022-08-16T13:13:53.502Z,30.90
2022-08-16T13:24:00.261Z,33.60
2022-08-16T13:34:09.225Z,34.10
2022-08-16T13:44:15.648Z,34.60
2022-08-16T13:54:19.976Z,34.80
2022-08-16T14:04:26.957Z,35.00
2022-08-16T14:14:31.560Z,34.00
2022-08-16T14:24:38.469Z,32.50
2022-08-16T14:34:43.260Z,33.70
2022-08-16T14:44:49.554Z,33.80
2022-08-16T14:54:55.233Z,30.80
2022-08-16T15:05:00.484Z,30.20
2022-08-16T15:15:12.753Z,30.10
2022-08-16T15:25:28.997Z,30.30
2022-08-16T15:35:33.731Z,29.80
2022-08-16T15:45:58.946Z,29.50
2022-08-16T15:56:03.166Z,29.00
2022-08-16T16:06:12.972Z,28.90
2022-08-16T16:16:19.923Z,28.90
2022-08-16T16:26:26.710Z,28.80
2022-08-16T16:36:34.598Z,28.90
2022-08-16T16:46:43.757Z,29.10
2022-08-16T16:56:50.114Z,30.10
2022-08-16T17:06:57.431Z,29.70
2022-08-16T17:17:01.476Z,29.70
2022-08-16T17:27:07.973Z,30.20
2022-08-16T17:37:12.512Z,29.40
2022-08-16T17:47:21.571Z,30.40
2022-08-16T17:57:25.512Z,31.40
2022-08-16T18:07:30.626Z,30.10
2022-08-16T18:17:34.568Z,29.40
2022-08-16T18:27:39.729Z,28.80
2022-08-16T18:37:43.510Z,28.50
2022-08-16T18:47:48.599Z,28.20
2022-08-16T18:57:52.465Z,28.20
2022-08-16T19:07:57.920Z,27.90
2022-08-16T19:18:01.866Z,27.80
2022-08-16T19:28:07.321Z,27.70
2022-08-16T19:38:25.232Z,27.40
2022-08-16T19:48:30.362Z,27.40
2022-08-16T19:58:34.098Z,27.40
2022-08-16T20:08:39.174Z,27.00
2022-08-16T20:18:42.906Z,26.60
2022-08-16T20:28:53.980Z,26.70
2022-08-16T20:39:00.466Z,26.30
2022-08-16T20:49:05.899Z,26.00
2022-08-16T20:59:13.009Z,26.00
2022-08-16T21:09:18.284Z,25.60
2022-08-16T21:19:23.326Z,25.60
2022-08-16T21:29:39.721Z,25.60
2022-08-16T21:39:46.953Z,25.60
2022-08-16T21:49:52.120Z,25.60
2022-08-16T21:59:57.294Z,25.40
2022-08-16T22:10:44.770Z,25.40
2022-08-16T22:20:28.952Z,25.30
2022-08-16T22:30:34.511Z,25.40
2022-08-16T22:40:39.541Z,25.50
2022-08-16T22:50:45.131Z,25.50
2022-08-16T23:00:48.896Z,25.40
2022-08-16T23:10:54.207Z,25.40
2022-08-16T23:21:00.376Z,25.60
2022-08-16T23:31:07.364Z,25.40
2022-08-16T23:41:13.861Z,25.40
2022-08-16T23:51:19.518Z,25.20
